EPIC254 RPLL-VVTS
Flight info
| Callsign | EPIC254 |
|---|---|
| Flight time | N/A |
| Altitude | 12000 |
| Route | RPLL DCT BETEL M765 PANDI N500 PTH DCT VVTS |
| Aircraft | SF50/M-SB3/S |
Departure
| Time | 2026-05-05 15:19 |
|---|---|
| Airport | Ninoy Aquino International Airport (RPLL) |
Arrival
| Time | N/A |
|---|---|
| Airport | Tan Son Nhat International Airport (VVTS) |
| Time | Latitude | Longitude | Altitude | Speed | Heading |
|---|---|---|---|---|---|
| 2026-05-05 15:01 | 14.50183 | 121.00215 | 32 ft | 0 kts | 237° |
| 2026-05-05 15:15 | 14.50187 | 121.00222 | 32 ft | 2 kts | 236° |
| 2026-05-05 15:15 | 14.50196 | 121.00236 | 32 ft | 2 kts | 232° |
| 2026-05-05 15:15 | 14.50208 | 121.00247 | 32 ft | 2 kts | 185° |
| 2026-05-05 15:16 | 14.50217 | 121.00241 | 32 ft | 0 kts | 138° |
| 2026-05-05 15:17 | 14.50215 | 121.00248 | 32 ft | 4 kts | 83° |
| 2026-05-05 15:17 | 14.50229 | 121.00293 | 32 ft | 10 kts | 121° |
| 2026-05-05 15:17 | 14.50156 | 121.00339 | 32 ft | 9 kts | 160° |
| 2026-05-05 15:17 | 14.50095 | 121.00292 | 31 ft | 15 kts | 244° |
| 2026-05-05 15:18 | 14.50034 | 121.00183 | 30 ft | 20 kts | 241° |
| 2026-05-05 15:18 | 14.49955 | 121.00042 | 30 ft | 29 kts | 240° |
| 2026-05-05 15:18 | 14.49826 | 121.00053 | 29 ft | 33 kts | 72° |
| 2026-05-05 15:18 | 14.50041 | 121.00474 | 49 ft | 102 kts | 60° |
| 2026-05-05 15:19 | 14.50436 | 121.01166 | 642 ft | 114 kts | 62° |
| 2026-05-05 15:19 | 14.50824 | 121.01869 | 1389 ft | 111 kts | 62° |
| 2026-05-05 15:19 | 14.51207 | 121.02616 | 1987 ft | 128 kts | 59° |
| 2026-05-05 15:19 | 14.51704 | 121.03481 | 2543 ft | 152 kts | 59° |
| 2026-05-05 15:20 | 14.52264 | 121.04475 | 3249 ft | 163 kts | 62° |
| 2026-05-05 15:20 | 14.52832 | 121.05496 | 4088 ft | 166 kts | 62° |
| 2026-05-05 15:20 | 14.53412 | 121.06542 | 4890 ft | 169 kts | 63° |
| 2026-05-05 15:20 | 14.54003 | 121.07603 | 5684 ft | 172 kts | 62° |
| 2026-05-05 15:21 | 14.54602 | 121.08687 | 6452 ft | 176 kts | 62° |
| 2026-05-05 15:21 | 14.55213 | 121.09787 | 7206 ft | 177 kts | 62° |
| 2026-05-05 15:21 | 14.55827 | 121.10896 | 7960 ft | 179 kts | 62° |
| 2026-05-05 15:21 | 14.56470 | 121.12000 | 8706 ft | 181 kts | 55° |
| 2026-05-05 15:22 | 14.57427 | 121.12864 | 9438 ft | 186 kts | 34° |
| 2026-05-05 15:22 | 14.58644 | 121.13358 | 10122 ft | 192 kts | 14° |
| 2026-05-05 15:22 | 14.59997 | 121.13426 | 10751 ft | 197 kts | 2° |
| 2026-05-05 15:22 | 14.61379 | 121.13433 | 11397 ft | 200 kts | 4° |
| 2026-05-05 15:23 | 14.62780 | 121.13452 | 12023 ft | 203 kts | 3° |
| 2026-05-05 15:23 | 14.64202 | 121.13461 | 12650 ft | 206 kts | 2° |
| 2026-05-05 15:23 | 14.65645 | 121.13472 | 13277 ft | 209 kts | 2° |
| 2026-05-05 15:23 | 14.67096 | 121.13313 | 13846 ft | 213 kts | 343° |
| 2026-05-05 15:24 | 14.68418 | 121.12611 | 14392 ft | 216 kts | 323° |
| 2026-05-05 15:24 | 14.69429 | 121.11467 | 14952 ft | 218 kts | 302° |
| 2026-05-05 15:24 | 14.69989 | 121.10018 | 15504 ft | 219 kts | 281° |
| 2026-05-05 15:24 | 14.70061 | 121.08447 | 16046 ft | 220 kts | 268° |
| 2026-05-05 15:25 | 14.70047 | 121.06855 | 16584 ft | 222 kts | 269° |
| 2026-05-05 15:25 | 14.70051 | 121.05244 | 17165 ft | 217 kts | 269° |
| 2026-05-05 15:25 | 14.70064 | 121.03671 | 17712 ft | 224 kts | 269° |
| 2026-05-05 15:25 | 14.70042 | 121.01969 | 17946 ft | 237 kts | 268° |
| 2026-05-05 15:26 | 14.70011 | 121.00357 | 18891 ft | 211 kts | 266° |
| 2026-05-05 15:26 | 14.69730 | 120.98953 | 19697 ft | 190 kts | 246° |
| 2026-05-05 15:26 | 14.69270 | 120.97738 | 20442 ft | 172 kts | 248° |
| 2026-05-05 15:26 | 14.68896 | 120.96641 | 21188 ft | 151 kts | 248° |
| 2026-05-05 15:27 | 14.68552 | 120.95680 | 21687 ft | 147 kts | 248° |
| 2026-05-05 15:27 | 14.68166 | 120.94607 | 21806 ft | 169 kts | 248° |
| 2026-05-05 15:27 | 14.67742 | 120.93429 | 22059 ft | 180 kts | 248° |
| 2026-05-05 15:27 | 14.67298 | 120.92185 | 22359 ft | 189 kts | 248° |
| 2026-05-05 15:28 | 14.66835 | 120.90897 | 22696 ft | 194 kts | 248° |
| 2026-05-05 15:28 | 14.66361 | 120.89576 | 23055 ft | 198 kts | 247° |
| 2026-05-05 15:28 | 14.65880 | 120.88236 | 23429 ft | 200 kts | 248° |
| 2026-05-05 15:28 | 14.65395 | 120.86884 | 23754 ft | 201 kts | 248° |
| 2026-05-05 15:29 | 14.64910 | 120.85529 | 24075 ft | 201 kts | 247° |
| 2026-05-05 15:29 | 14.64422 | 120.84175 | 24401 ft | 201 kts | 247° |
| 2026-05-05 15:29 | 14.63814 | 120.82914 | 24724 ft | 198 kts | 231° |
| 2026-05-05 15:29 | 14.62980 | 120.81792 | 25060 ft | 197 kts | 232° |
| 2026-05-05 15:30 | 14.62186 | 120.80644 | 25396 ft | 196 kts | 233° |
| 2026-05-05 15:30 | 14.61390 | 120.79510 | 25737 ft | 194 kts | 232° |
| 2026-05-05 15:30 | 14.60596 | 120.78387 | 26081 ft | 193 kts | 232° |
| 2026-05-05 15:30 | 14.59809 | 120.77275 | 26427 ft | 191 kts | 232° |
| 2026-05-05 15:31 | 14.59031 | 120.76177 | 26765 ft | 188 kts | 232° |
| 2026-05-05 15:31 | 14.58271 | 120.75102 | 27107 ft | 183 kts | 232° |
| 2026-05-05 15:31 | 14.57506 | 120.74010 | 27154 ft | 193 kts | 233° |
| 2026-05-05 15:31 | 14.56718 | 120.72863 | 27260 ft | 199 kts | 232° |
| 2026-05-05 15:32 | 14.55867 | 120.71691 | 27202 ft | 213 kts | 232° |
| 2026-05-05 15:32 | 14.55004 | 120.70482 | 27579 ft | 202 kts | 232° |
| 2026-05-05 15:32 | 14.54214 | 120.69358 | 28089 ft | 185 kts | 232° |
| 2026-05-05 15:32 | 14.53493 | 120.68336 | 28598 ft | 167 kts | 232° |
| 2026-05-05 15:33 | 14.52847 | 120.67418 | 29101 ft | 148 kts | 232° |
| 2026-05-05 15:33 | 14.52268 | 120.66580 | 29293 ft | 150 kts | 234° |
| 2026-05-05 15:33 | 14.51625 | 120.65715 | 29490 ft | 148 kts | 229° |
| 2026-05-05 15:33 | 14.50963 | 120.64837 | 29496 ft | 161 kts | 231° |
| 2026-05-05 15:34 | 14.50291 | 120.63899 | 29635 ft | 165 kts | 232° |
| 2026-05-05 15:34 | 14.49603 | 120.62929 | 29767 ft | 170 kts | 232° |
| 2026-05-05 15:34 | 14.48894 | 120.61930 | 29893 ft | 175 kts | 232° |
| 2026-05-05 15:34 | 14.48156 | 120.60887 | 29921 ft | 185 kts | 232° |
| 2026-05-05 15:35 | 14.47371 | 120.59780 | 29919 ft | 196 kts | 232° |
| 2026-05-05 15:35 | 14.46539 | 120.58607 | 29918 ft | 209 kts | 232° |
| 2026-05-05 15:35 | 14.45662 | 120.57367 | 29910 ft | 219 kts | 232° |
| 2026-05-05 15:35 | 14.44746 | 120.56069 | 29918 ft | 228 kts | 232° |
| 2026-05-05 15:36 | 14.43807 | 120.54743 | 29918 ft | 236 kts | 232° |
| 2026-05-05 15:36 | 14.42827 | 120.53359 | 29919 ft | 242 kts | 232° |
| 2026-05-05 15:36 | 14.41825 | 120.51941 | 29916 ft | 247 kts | 232° |
| 2026-05-05 15:36 | 14.40801 | 120.50497 | 29917 ft | 251 kts | 232° |
| 2026-05-05 15:37 | 14.39761 | 120.49028 | 29910 ft | 256 kts | 232° |
| 2026-05-05 15:37 | 14.38691 | 120.47520 | 29912 ft | 260 kts | 232° |
| 2026-05-05 15:37 | 14.37618 | 120.46004 | 29912 ft | 263 kts | 232° |
| 2026-05-05 15:37 | 14.36546 | 120.44492 | 29913 ft | 266 kts | 232° |
| 2026-05-05 15:38 | 14.35445 | 120.42941 | 29917 ft | 270 kts | 232° |
| 2026-05-05 15:38 | 14.34328 | 120.41367 | 29915 ft | 274 kts | 232° |
| 2026-05-05 15:38 | 14.33195 | 120.39771 | 29925 ft | 278 kts | 232° |
| 2026-05-05 15:38 | 14.32047 | 120.38153 | 29916 ft | 281 kts | 232° |
| 2026-05-05 15:39 | 14.30886 | 120.36518 | 29915 ft | 284 kts | 232° |
| 2026-05-05 15:39 | 14.29714 | 120.34868 | 29916 ft | 286 kts | 232° |
| 2026-05-05 15:39 | 14.28540 | 120.33213 | 29911 ft | 286 kts | 232° |
| 2026-05-05 15:39 | 14.27360 | 120.31554 | 29916 ft | 287 kts | 232° |
| 2026-05-05 15:40 | 14.26180 | 120.29890 | 29910 ft | 288 kts | 232° |
| 2026-05-05 15:40 | 14.24997 | 120.28223 | 29914 ft | 288 kts | 232° |
| 2026-05-05 15:40 | 14.23811 | 120.26555 | 29914 ft | 289 kts | 232° |
| 2026-05-05 15:40 | 14.22625 | 120.24885 | 29915 ft | 289 kts | 232° |
| 2026-05-05 15:41 | 14.21437 | 120.23214 | 29908 ft | 289 kts | 232° |
| 2026-05-05 15:41 | 14.20247 | 120.21540 | 29908 ft | 290 kts | 232° |
| 2026-05-05 15:41 | 14.19056 | 120.19865 | 29908 ft | 290 kts | 232° |
| 2026-05-05 15:41 | 14.18268 | 120.18756 | 29908 ft | 290 kts | 233° |
| 2026-05-05 15:42 | 14.17286 | 120.16941 | 29904 ft | 291 kts | 246° |
| 2026-05-05 15:42 | 14.16544 | 120.15000 | 29904 ft | 291 kts | 246° |
| 2026-05-05 15:42 | 14.15775 | 120.13068 | 29906 ft | 292 kts | 246° |
| 2026-05-05 15:42 | 14.15002 | 120.11135 | 29904 ft | 292 kts | 246° |
| 2026-05-05 15:43 | 14.14237 | 120.09198 | 29904 ft | 292 kts | 246° |
| 2026-05-05 15:43 | 14.13473 | 120.07258 | 29903 ft | 292 kts | 246° |
| 2026-05-05 15:43 | 14.12708 | 120.05320 | 29911 ft | 292 kts | 246° |
| 2026-05-05 15:43 | 14.11972 | 120.03457 | 29914 ft | 268 kts | 246° |
| 2026-05-05 15:44 | 14.11299 | 120.01751 | 29905 ft | 247 kts | 246° |
| 2026-05-05 15:44 | 14.10659 | 120.00141 | 29884 ft | 243 kts | 246° |
| 2026-05-05 15:44 | 14.10019 | 119.98522 | 29899 ft | 246 kts | 246° |
| 2026-05-05 15:44 | 14.09367 | 119.96881 | 29904 ft | 249 kts | 246° |
| 2026-05-05 15:45 | 14.08709 | 119.95219 | 29904 ft | 252 kts | 246° |
| 2026-05-05 15:45 | 14.08044 | 119.93539 | 29908 ft | 255 kts | 246° |
| 2026-05-05 15:45 | 14.07372 | 119.91841 | 29917 ft | 257 kts | 246° |
| 2026-05-05 15:45 | 14.06694 | 119.90127 | 29916 ft | 260 kts | 246° |
| 2026-05-05 15:46 | 14.06008 | 119.88399 | 29914 ft | 262 kts | 246° |
| 2026-05-05 15:46 | 14.05317 | 119.86654 | 29917 ft | 264 kts | 246° |
| 2026-05-05 15:46 | 14.04619 | 119.84898 | 29912 ft | 266 kts | 246° |
| 2026-05-05 15:46 | 14.03917 | 119.83128 | 29916 ft | 268 kts | 246° |
| 2026-05-05 15:47 | 14.03209 | 119.81344 | 29910 ft | 270 kts | 246° |
| 2026-05-05 15:47 | 14.02494 | 119.79544 | 29919 ft | 273 kts | 246° |
| 2026-05-05 15:47 | 14.01773 | 119.77729 | 29918 ft | 275 kts | 246° |
| 2026-05-05 15:47 | 14.01046 | 119.75897 | 29917 ft | 278 kts | 246° |
| 2026-05-05 15:48 | 14.00311 | 119.74050 | 29911 ft | 280 kts | 246° |
| 2026-05-05 15:48 | 13.99573 | 119.72191 | 29915 ft | 281 kts | 246° |
| 2026-05-05 15:48 | 13.98831 | 119.70323 | 29918 ft | 282 kts | 246° |
| 2026-05-05 15:48 | 13.98086 | 119.68450 | 29905 ft | 283 kts | 246° |
| 2026-05-05 15:49 | 13.97454 | 119.66859 | 29910 ft | 285 kts | 246° |